Time;durP1;ratioP1;P1;durP2;ratioP2;P2;SDS_P1;SDS_P2;PMS_P1;PMS_P2;Temp;Humidity;BMP_temperature;BMP_pressure;BME280_temperature;BME280_humidity;BME280_pressure;Samples;Min_cycle;Max_cycle;Signal;HPM_P1;HPM_P2
2022/07/09 00:02:11;;;;;;;10.97;4.17;;;16.80;99.90;;;;;;5048366;28;20385;-66
2022/07/09 00:04:37;;;;;;;9.73;3.72;;;16.80;99.90;;;;;;5045136;28;20433;-66
2022/07/09 00:07:03;;;;;;;11.43;4.20;;;16.70;99.90;;;;;;5043932;28;20761;-66
2022/07/09 00:09:28;;;;;;;10.20;3.67;;;16.70;99.90;;;;;;5045217;28;20689;-66
2022/07/09 00:11:54;;;;;;;10.77;4.10;;;16.70;99.90;;;;;;5045399;28;20408;-66
2022/07/09 00:14:20;;;;;;;11.60;4.00;;;16.60;99.90;;;;;;5046601;28;20440;-66
2022/07/09 00:16:46;;;;;;;13.02;3.90;;;16.60;99.90;;;;;;5045971;28;20770;-67
2022/07/09 00:19:12;;;;;;;11.27;4.13;;;16.60;99.90;;;;;;5047057;28;21001;-66
2022/07/09 00:21:38;;;;;;;14.18;4.60;;;16.60;99.90;;;;;;5045944;28;20597;-67
2022/07/09 00:24:04;;;;;;;12.55;4.03;;;16.60;99.90;;;;;;5048582;28;20909;-67
2022/07/09 00:26:30;;;;;;;12.90;4.10;;;16.60;99.90;;;;;;5050227;28;20480;-67
2022/07/09 00:28:55;;;;;;;12.03;4.10;;;16.60;99.90;;;;;;5050503;28;20582;-67
2022/07/09 00:31:21;;;;;;;11.25;4.18;;;16.60;99.90;;;;;;5049986;28;20420;-67
2022/07/09 00:33:47;;;;;;;10.40;4.20;;;16.50;99.90;;;;;;5048276;28;20397;-67
2022/07/09 00:36:12;;;;;;;12.97;4.10;;;16.50;99.90;;;;;;5050267;28;20382;-67
2022/07/09 00:38:38;;;;;;;10.50;3.90;;;16.50;99.90;;;;;;5051004;28;20470;-67
2022/07/09 00:41:04;;;;;;;9.18;3.90;;;16.40;99.90;;;;;;5050237;28;20381;-67
2022/07/09 00:43:30;;;;;;;11.17;3.70;;;16.40;99.90;;;;;;5050677;28;20425;-67
2022/07/09 00:45:56;;;;;;;11.50;4.40;;;16.50;99.90;;;;;;5052367;28;20392;-68
2022/07/09 00:48:22;;;;;;;10.35;4.18;;;16.40;99.90;;;;;;5049869;28;20409;-68
2022/07/09 00:50:48;;;;;;;10.98;4.20;;;16.40;99.90;;;;;;5049481;28;20404;-67
2022/07/09 00:53:15;;;;;;;11.93;4.60;;;16.40;99.90;;;;;;5049175;28;20378;-68
2022/07/09 00:55:43;;;;;;;11.48;3.90;;;16.40;99.90;;;;;;5047826;28;20393;-68
2022/07/09 00:58:09;;;;;;;11.43;3.78;;;16.40;99.90;;;;;;5048272;28;20381;-68
2022/07/09 01:00:35;;;;;;;10.52;3.80;;;16.50;99.90;;;;;;5047679;28;20647;-68
2022/07/09 01:03:00;;;;;;;12.13;4.25;;;16.40;99.90;;;;;;5045004;28;20393;-68
2022/07/09 01:05:26;;;;;;;9.65;3.92;;;16.50;99.90;;;;;;5043488;28;20502;-66
2022/07/09 01:07:52;;;;;;;6.93;3.80;;;16.50;99.90;;;;;;5047261;28;20401;-67
2022/07/09 01:10:19;;;;;;;10.60;4.15;;;16.40;99.90;;;;;;5045564;28;20377;-67
2022/07/09 01:12:45;;;;;;;11.48;4.20;;;16.50;99.90;;;;;;5046691;28;20749;-67
2022/07/09 01:15:10;;;;;;;11.68;4.40;;;16.50;99.90;;;;;;5044103;28;20447;-67
2022/07/09 01:17:40;;;;;;;11.15;3.80;;;16.50;99.90;;;;;;5048183;28;20389;-67
2022/07/09 01:20:07;;;;;;;8.73;4.07;;;16.50;99.90;;;;;;5047939;28;20670;-67
2022/07/09 01:22:33;;;;;;;9.80;4.00;;;16.50;99.90;;;;;;5048724;28;20425;-67
2022/07/09 01:25:00;;;;;;;11.68;4.50;;;16.50;99.90;;;;;;5050250;28;20451;-67
2022/07/09 01:27:26;;;;;;;14.77;4.50;;;16.40;99.90;;;;;;5048589;28;20684;-66
2022/07/09 01:29:51;;;;;;;9.32;4.15;;;16.40;99.90;;;;;;5047548;28;20400;-66
2022/07/09 01:32:17;;;;;;;12.03;4.47;;;16.40;99.90;;;;;;5046236;28;20376;-67
2022/07/09 01:34:43;;;;;;;12.15;3.97;;;16.40;99.90;;;;;;5044806;28;20650;-67
2022/07/09 01:37:09;;;;;;;10.27;3.92;;;16.30;99.90;;;;;;5046911;28;20405;-67
2022/07/09 01:39:34;;;;;;;10.68;3.92;;;16.30;99.90;;;;;;5047385;28;20385;-66
2022/07/09 01:42:00;;;;;;;12.53;4.50;;;16.40;99.90;;;;;;5046499;28;20463;-67
2022/07/09 01:44:25;;;;;;;11.52;4.45;;;16.30;99.90;;;;;;5049107;28;20385;-67
2022/07/09 01:46:51;;;;;;;14.38;4.70;;;16.30;99.90;;;;;;5050161;28;20408;-68
2022/07/09 01:49:16;;;;;;;13.03;4.53;;;16.20;99.90;;;;;;5051425;28;20470;-66
2022/07/09 01:51:42;;;;;;;12.48;4.63;;;16.20;99.90;;;;;;5050180;28;20476;-67
2022/07/09 01:54:08;;;;;;;8.65;3.80;;;16.20;99.90;;;;;;5050150;28;20423;-67
2022/07/09 01:56:34;;;;;;;11.50;4.53;;;16.20;99.90;;;;;;5049656;28;20852;-67
2022/07/09 01:59:00;;;;;;;10.45;4.32;;;16.20;99.90;;;;;;5047096;28;20393;-67
2022/07/09 02:01:26;;;;;;;10.02;4.28;;;16.20;99.90;;;;;;5045097;28;20385;-67
2022/07/09 02:03:52;;;;;;;10.98;4.43;;;16.20;99.90;;;;;;5046756;28;20730;-67
2022/07/09 02:06:18;;;;;;;12.20;4.43;;;16.10;99.90;;;;;;5047934;28;20404;-67
2022/07/09 02:08:43;;;;;;;11.52;4.40;;;16.20;99.90;;;;;;5046974;28;20405;-67
2022/07/09 02:11:10;;;;;;;9.87;3.93;;;16.10;99.90;;;;;;5045420;28;20462;-68
2022/07/09 02:13:35;;;;;;;11.85;4.40;;;16.10;99.90;;;;;;5047700;28;20502;-68
2022/07/09 02:16:01;;;;;;;11.63;4.63;;;16.00;99.90;;;;;;5048655;28;20457;-68
2022/07/09 02:18:27;;;;;;;11.23;4.37;;;16.10;99.90;;;;;;5048611;28;20806;-67
2022/07/09 02:20:55;;;;;;;12.03;4.40;;;16.00;99.90;;;;;;5047559;28;20397;-67
2022/07/09 02:23:22;;;;;;;12.00;4.20;;;16.00;99.90;;;;;;5047099;28;20403;-67
2022/07/09 02:25:48;;;;;;;10.67;4.17;;;16.10;99.90;;;;;;5048268;28;20765;-67
2022/07/09 02:28:13;;;;;;;9.03;4.20;;;16.10;99.90;;;;;;5047463;28;20829;-67
2022/07/09 02:30:39;;;;;;;12.95;4.60;;;16.10;99.90;;;;;;5047235;28;20393;-67
2022/07/09 02:33:05;;;;;;;11.50;4.00;;;16.10;99.90;;;;;;5047843;28;20597;-67
2022/07/09 02:35:31;;;;;;;10.85;4.10;;;16.10;99.90;;;;;;5048431;28;20462;-67
2022/07/09 02:37:56;;;;;;;13.20;4.45;;;16.10;99.90;;;;;;5049953;28;20389;-67
2022/07/09 02:40:22;;;;;;;9.75;3.63;;;16.20;99.90;;;;;;5050292;28;20403;-67
2022/07/09 02:42:47;;;;;;;10.70;3.92;;;16.20;99.90;;;;;;5050371;28;20385;-67
2022/07/09 02:45:13;;;;;;;7.60;3.53;;;16.20;99.90;;;;;;5048771;28;20428;-68
2022/07/09 02:47:39;;;;;;;12.13;4.15;;;16.20;99.90;;;;;;5047754;28;20432;-68
2022/07/09 02:50:05;;;;;;;11.23;4.00;;;16.20;99.90;;;;;;5047034;28;20448;-67
2022/07/09 02:52:31;;;;;;;10.15;3.80;;;16.20;99.90;;;;;;5048027;28;20553;-67
2022/07/09 02:54:57;;;;;;;8.50;3.42;;;16.20;99.90;;;;;;5047157;28;20386;-67
2022/07/09 02:57:22;;;;;;;9.25;3.70;;;16.20;99.90;;;;;;5045301;28;20424;-67
2022/07/09 02:59:48;;;;;;;10.37;4.20;;;16.20;99.90;;;;;;5048923;28;20396;-67
2022/07/09 03:02:13;;;;;;;10.43;3.97;;;16.20;99.90;;;;;;5048837;28;20451;-68
2022/07/09 03:04:39;;;;;;;12.27;4.17;;;16.10;99.90;;;;;;5048298;28;20418;-67
2022/07/09 03:07:04;;;;;;;9.35;3.75;;;16.10;99.90;;;;;;5050861;28;20547;-70
2022/07/09 03:09:30;;;;;;;8.38;3.70;;;16.10;99.90;;;;;;5050262;28;20385;-68
2022/07/09 03:11:56;;;;;;;9.10;3.60;;;16.20;99.90;;;;;;5052593;28;20492;-67
2022/07/09 03:14:21;;;;;;;10.30;3.88;;;16.20;99.90;;;;;;5055267;28;20506;-67
2022/07/09 03:16:47;;;;;;;11.15;4.40;;;16.20;99.90;;;;;;5056407;28;20392;-67
2022/07/09 03:19:13;;;;;;;8.48;3.88;;;16.10;99.90;;;;;;5055942;28;20396;-67
2022/07/09 03:21:39;;;;;;;9.00;4.13;;;16.10;99.90;;;;;;5055054;28;20669;-67
2022/07/09 03:24:05;;;;;;;13.57;4.10;;;16.10;99.90;;;;;;5054889;28;20807;-67
2022/07/09 03:26:31;;;;;;;11.13;3.45;;;16.10;99.90;;;;;;5053164;28;20389;-66
2022/07/09 03:28:56;;;;;;;9.63;3.60;;;16.10;99.90;;;;;;5053661;28;20479;-66
2022/07/09 03:31:22;;;;;;;9.35;4.10;;;16.10;99.90;;;;;;5052318;28;20432;-66
2022/07/09 03:33:47;;;;;;;12.73;4.07;;;16.10;99.90;;;;;;5049294;28;20439;-66
2022/07/09 03:36:13;;;;;;;12.23;3.80;;;16.00;99.90;;;;;;5047098;28;20411;-67
2022/07/09 03:38:39;;;;;;;11.98;4.35;;;16.00;99.90;;;;;;5046790;28;20488;-68
2022/07/09 03:41:04;;;;;;;11.32;3.70;;;16.00;99.90;;;;;;5046366;28;20451;-67
2022/07/09 03:43:30;;;;;;;10.23;3.87;;;16.00;99.90;;;;;;5048980;28;20688;-67
2022/07/09 03:45:55;;;;;;;11.25;4.20;;;15.90;99.90;;;;;;5051742;28;20754;-67
2022/07/09 03:48:21;;;;;;;9.53;3.93;;;15.90;99.90;;;;;;5052137;28;20421;-67
2022/07/09 03:50:46;;;;;;;10.43;4.28;;;15.90;99.90;;;;;;5053032;28;20396;-67
2022/07/09 03:53:12;;;;;;;10.40;5.07;;;15.90;99.90;;;;;;5052169;28;20389;-67
2022/07/09 03:55:38;;;;;;;10.37;4.70;;;15.90;99.90;;;;;;5050688;28;20382;-68
2022/07/09 03:58:04;;;;;;;8.80;4.25;;;15.90;99.90;;;;;;5049279;28;20441;-68
2022/07/09 04:00:29;;;;;;;10.60;4.18;;;15.90;99.90;;;;;;5048980;28;20425;-66
2022/07/09 04:02:55;;;;;;;9.32;4.47;;;15.80;99.90;;;;;;5048767;28;20486;-67
2022/07/09 04:05:20;;;;;;;8.83;4.13;;;15.90;99.90;;;;;;5047753;28;20429;-67
2022/07/09 04:07:46;;;;;;;9.10;4.60;;;15.90;99.90;;;;;;5048329;28;20413;-67
2022/07/09 04:10:12;;;;;;;8.30;4.50;;;15.90;99.90;;;;;;5050030;28;20389;-66
2022/07/09 04:12:37;;;;;;;10.57;4.60;;;15.90;99.90;;;;;;5050809;28;20689;-69
2022/07/09 04:15:03;;;;;;;10.30;4.53;;;15.90;99.90;;;;;;5051704;28;20397;-67
2022/07/09 04:17:28;;;;;;;10.00;4.43;;;16.00;99.90;;;;;;5051542;28;20397;-66
2022/07/09 04:19:54;;;;;;;10.07;4.20;;;15.90;99.90;;;;;;5051253;28;20474;-67
2022/07/09 04:22:20;;;;;;;8.47;4.47;;;15.90;99.90;;;;;;5051780;28;20401;-67
2022/07/09 04:24:45;;;;;;;10.55;4.28;;;16.00;99.90;;;;;;5049509;28;20738;-67
2022/07/09 04:27:11;;;;;;;8.50;4.40;;;16.00;99.90;;;;;;5051274;28;20896;-67
2022/07/09 04:29:36;;;;;;;10.53;4.40;;;16.00;99.90;;;;;;5051752;28;20670;-67
2022/07/09 04:32:02;;;;;;;10.23;3.93;;;16.00;99.90;;;;;;5052221;28;20385;-67
2022/07/09 04:34:27;;;;;;;10.90;3.87;;;16.00;99.90;;;;;;5051603;28;20650;-67
2022/07/09 04:36:53;;;;;;;7.65;3.22;;;16.00;99.90;;;;;;5051134;28;20423;-67
2022/07/09 04:39:19;;;;;;;9.40;3.72;;;16.10;99.90;;;;;;5049690;28;20393;-68
2022/07/09 04:41:44;;;;;;;7.40;3.43;;;16.10;99.90;;;;;;5052439;28;20485;-67
2022/07/09 04:44:12;;;;;;;9.25;3.40;;;16.10;99.90;;;;;;5051530;28;20782;-66
2022/07/09 04:46:37;;;;;;;7.38;3.60;;;16.10;99.90;;;;;;5052081;28;20373;-67
2022/07/09 04:49:03;;;;;;;7.22;3.47;;;16.10;99.90;;;;;;5051216;28;20385;-67
2022/07/09 04:51:29;;;;;;;5.82;3.30;;;16.10;99.90;;;;;;5050507;28;20400;-67
2022/07/09 04:53:54;;;;;;;8.50;3.23;;;16.10;99.90;;;;;;5051984;28;20579;-67
2022/07/09 04:56:20;;;;;;;7.75;3.60;;;16.00;99.90;;;;;;5050861;28;20900;-67
2022/07/09 04:58:54;;;;;;;8.33;3.17;;;16.10;99.90;;;;;;5052918;28;20802;-67
2022/07/09 05:01:21;;;;;;;6.57;3.33;;;16.10;99.90;;;;;;5052185;28;20412;-67
2022/07/09 05:03:47;;;;;;;8.65;3.50;;;16.10;99.90;;;;;;5049951;28;20425;-67
2022/07/09 05:06:17;;;;;;;7.00;3.30;;;16.10;99.90;;;;;;5047881;28;20586;-67
2022/07/09 05:08:42;;;;;;;6.63;3.13;;;16.20;99.90;;;;;;5049063;28;20405;-67
2022/07/09 05:11:09;;;;;;;9.23;3.38;;;16.20;99.90;;;;;;5046776;28;20548;-66
2022/07/09 05:13:37;;;;;;;7.85;3.65;;;16.20;99.90;;;;;;5044975;28;20428;-66
2022/07/09 05:16:04;;;;;;;7.05;3.17;;;16.20;99.90;;;;;;5043100;28;20382;-66
2022/07/09 05:18:30;;;;;;;5.63;3.13;;;16.20;99.90;;;;;;5040259;28;20499;-67
2022/07/09 05:20:56;;;;;;;7.80;2.90;;;16.20;99.90;;;;;;5040147;28;20699;-67
2022/07/09 05:23:22;;;;;;;5.83;3.03;;;16.30;99.90;;;;;;5040961;28;20501;-67
2022/07/09 05:25:47;;;;;;;6.80;2.73;;;16.30;99.90;;;;;;5042234;28;20488;-67
2022/07/09 05:28:13;;;;;;;7.15;3.10;;;16.30;99.90;;;;;;5040588;28;20653;-67
2022/07/09 05:30:38;;;;;;;7.03;2.90;;;16.30;99.90;;;;;;5041873;28;20788;-66
2022/07/09 05:33:05;;;;;;;5.30;2.70;;;16.30;99.90;;;;;;5044711;28;20393;-67
2022/07/09 05:35:31;;;;;;;6.10;2.40;;;16.40;99.90;;;;;;5046122;28;20386;-67
2022/07/09 05:37:56;;;;;;;6.97;2.93;;;16.40;99.90;;;;;;5045213;28;20411;-67
2022/07/09 05:40:22;;;;;;;8.40;3.13;;;16.40;99.90;;;;;;5046410;28;20374;-67
2022/07/09 05:42:47;;;;;;;7.68;2.90;;;16.40;99.90;;;;;;5045673;28;20797;-67
2022/07/09 05:45:13;;;;;;;8.53;2.93;;;16.40;99.90;;;;;;5042216;28;21042;-67
2022/07/09 05:47:39;;;;;;;7.93;3.63;;;16.40;99.90;;;;;;5042498;28;20409;-68
2022/07/09 05:50:05;;;;;;;6.73;2.77;;;16.40;99.90;;;;;;5041408;28;20976;-68
2022/07/09 05:52:31;;;;;;;8.20;2.90;;;16.40;99.90;;;;;;5042108;28;20871;-67
2022/07/09 05:54:56;;;;;;;5.05;2.55;;;16.50;99.90;;;;;;5039511;28;20389;-67
2022/07/09 05:57:22;;;;;;;8.95;3.35;;;16.50;99.90;;;;;;5040815;28;20688;-67
2022/07/09 05:59:48;;;;;;;8.80;3.03;;;16.50;99.90;;;;;;5040291;28;20385;-67
2022/07/09 06:02:14;;;;;;;7.38;3.20;;;16.50;99.90;;;;;;5043703;28;20393;-67
2022/07/09 06:04:39;;;;;;;7.60;3.22;;;16.40;99.90;;;;;;5042227;28;20476;-67
2022/07/09 06:07:05;;;;;;;7.70;3.53;;;16.50;99.90;;;;;;5043549;28;20885;-65
2022/07/09 06:09:31;;;;;;;8.03;3.20;;;16.50;99.90;;;;;;5045171;28;20567;-66
2022/07/09 06:11:56;;;;;;;10.87;3.80;;;16.50;99.90;;;;;;5044634;28;20652;-66
2022/07/09 06:14:22;;;;;;;7.30;3.07;;;16.50;99.90;;;;;;5046228;28;20381;-66
2022/07/09 06:16:48;;;;;;;5.93;2.77;;;16.50;99.90;;;;;;5047209;28;20667;-66
2022/07/09 06:19:14;;;;;;;6.47;3.10;;;16.50;99.90;;;;;;5046618;28;20444;-66
2022/07/09 06:21:40;;;;;;;8.40;3.10;;;16.50;99.90;;;;;;5046647;28;20469;-66
2022/07/09 06:24:06;;;;;;;7.53;3.17;;;16.60;99.90;;;;;;5045043;28;20476;-67
2022/07/09 06:26:33;;;;;;;9.25;3.35;;;16.60;99.90;;;;;;5048054;28;20833;-68
2022/07/09 06:28:59;;;;;;;6.68;2.95;;;16.60;99.90;;;;;;5044888;28;20405;-68
2022/07/09 06:31:25;;;;;;;5.95;3.30;;;16.60;99.90;;;;;;5046166;28;20483;-67
2022/07/09 06:33:50;;;;;;;6.78;2.95;;;16.70;99.90;;;;;;5044055;28;20508;-68
2022/07/09 06:36:16;;;;;;;7.80;3.20;;;16.70;99.90;;;;;;5043999;28;20533;-67
2022/07/09 06:41:26;;;;;;;5.30;2.75;;;16.80;99.90;;;;;;5045394;28;20770;-67
2022/07/09 06:43:51;;;;;;;6.03;3.03;;;16.80;99.90;;;;;;5044415;28;20557;-66
2022/07/09 06:46:17;;;;;;;7.10;3.27;;;16.90;99.90;;;;;;5044837;28;20393;-66
2022/07/09 06:48:42;;;;;;;7.53;3.53;;;16.90;99.90;;;;;;5047830;28;20435;-66
2022/07/09 06:51:08;;;;;;;5.95;3.10;;;16.90;99.90;;;;;;5046979;28;20603;-66
2022/07/09 06:53:33;;;;;;;6.03;3.23;;;16.90;99.90;;;;;;5046190;28;20425;-66
2022/07/09 06:55:59;;;;;;;5.57;2.77;;;17.00;99.90;;;;;;5045878;28;20388;-66
2022/07/09 06:58:24;;;;;;;6.70;2.87;;;17.00;99.90;;;;;;5047722;28;21029;-67
2022/07/09 07:00:50;;;;;;;4.43;2.80;;;17.00;99.90;;;;;;5048384;28;20393;-67
2022/07/09 07:03:15;;;;;;;4.90;2.72;;;17.00;99.90;;;;;;5048765;28;20704;-67
2022/07/09 07:05:41;;;;;;;5.50;2.73;;;17.10;99.90;;;;;;5045796;28;20420;-67
2022/07/09 07:08:07;;;;;;;5.40;2.67;;;17.10;99.90;;;;;;5047945;28;20405;-67
2022/07/09 07:10:32;;;;;;;5.07;2.28;;;17.20;99.90;;;;;;5046232;28;20816;-65
2022/07/09 07:12:58;;;;;;;4.70;2.03;;;17.20;99.90;;;;;;5046143;28;20472;-68
2022/07/09 07:15:25;;;;;;;5.57;2.60;;;17.20;99.90;;;;;;5046430;28;20476;-65
2022/07/09 07:17:50;;;;;;;6.25;2.35;;;17.20;99.90;;;;;;5047050;28;20411;-67
2022/07/09 07:20:19;;;;;;;5.93;2.37;;;17.20;99.90;;;;;;5047622;28;20389;-66
2022/07/09 07:22:45;;;;;;;4.82;2.30;;;17.20;99.90;;;;;;5047486;28;20385;-66
2022/07/09 07:25:10;;;;;;;5.45;2.38;;;17.20;99.90;;;;;;5044789;28;20386;-66
2022/07/09 07:27:36;;;;;;;3.58;2.10;;;17.30;99.90;;;;;;5043793;28;20495;-66
2022/07/09 07:30:02;;;;;;;5.47;2.23;;;17.40;99.90;;;;;;5043870;28;20377;-66
2022/07/09 07:32:28;;;;;;;4.30;2.08;;;17.40;99.90;;;;;;5044441;28;20408;-67
2022/07/09 07:34:53;;;;;;;5.57;2.50;;;17.40;99.90;;;;;;5043353;28;20677;-67
2022/07/09 07:37:19;;;;;;;7.00;2.87;;;17.40;99.90;;;;;;5043360;28;20401;-66
2022/07/09 07:39:47;;;;;;;4.83;2.60;;;17.40;99.90;;;;;;5043474;28;20618;-66
2022/07/09 07:42:15;;;;;;;4.97;2.40;;;17.40;99.90;;;;;;5043440;28;20385;-68
2022/07/09 07:44:40;;;;;;;6.20;2.60;;;17.40;99.90;;;;;;5043611;28;20381;-67
2022/07/09 07:47:06;;;;;;;4.63;2.70;;;17.40;99.90;;;;;;5042253;28;20412;-68
2022/07/09 07:49:32;;;;;;;5.85;2.30;;;17.40;99.90;;;;;;5044624;28;20402;-67
2022/07/09 07:51:57;;;;;;;6.30;2.47;;;17.50;99.90;;;;;;5042566;28;20405;-66
2022/07/09 07:54:23;;;;;;;4.13;2.20;;;17.60;99.90;;;;;;5040488;28;20388;-67
2022/07/09 07:56:50;;;;;;;5.43;2.38;;;17.60;99.90;;;;;;5039601;28;20401;-67
2022/07/09 07:59:16;;;;;;;5.32;2.50;;;17.70;99.90;;;;;;5039071;28;20370;-67
2022/07/09 08:01:41;;;;;;;4.10;2.22;;;17.70;99.90;;;;;;5036489;28;20377;-67
2022/07/09 08:04:07;;;;;;;5.50;2.20;;;17.80;99.90;;;;;;5035789;28;20417;-67
2022/07/09 08:06:34;;;;;;;5.43;2.20;;;17.90;99.90;;;;;;5037889;28;20385;-66
2022/07/09 08:08:59;;;;;;;4.97;1.98;;;17.90;99.90;;;;;;5040968;28;20404;-67
2022/07/09 08:11:25;;;;;;;4.43;2.10;;;17.90;99.90;;;;;;5043220;28;20381;-67
2022/07/09 08:13:51;;;;;;;6.07;2.40;;;18.00;99.90;;;;;;5042608;28;20647;-67
2022/07/09 08:16:16;;;;;;;6.72;2.17;;;18.20;99.90;;;;;;5046782;28;20385;-67
2022/07/09 08:18:42;;;;;;;6.18;2.00;;;18.30;99.90;;;;;;5046089;28;20398;-67
2022/07/09 08:21:07;;;;;;;7.50;1.97;;;18.30;99.90;;;;;;5046106;28;20405;-67
2022/07/09 08:23:50;;;;;;;3.17;1.77;;;18.20;99.90;;;;;;5045874;28;21047;-67
2022/07/09 08:26:26;;;;;;;4.75;2.05;;;18.20;99.90;;;;;;5045326;28;20895;-68
2022/07/09 08:28:53;;;;;;;4.00;1.90;;;18.20;99.90;;;;;;5042936;28;20397;-67
2022/07/09 08:31:19;;;;;;;4.07;1.93;;;18.20;99.90;;;;;;5046430;28;20880;-69
2022/07/09 08:33:46;;;;;;;4.10;2.05;;;18.20;99.90;;;;;;5045233;28;20435;-68
2022/07/09 08:36:12;;;;;;;3.65;1.70;;;18.20;99.90;;;;;;5043729;28;20394;-68
2022/07/09 08:38:37;;;;;;;4.18;1.60;;;18.20;99.90;;;;;;5042985;28;20664;-68
2022/07/09 08:41:07;;;;;;;6.30;1.70;;;18.20;99.90;;;;;;5041631;28;20477;-66
2022/07/09 08:43:37;;;;;;;3.45;1.60;;;18.30;99.90;;;;;;5041745;28;20389;-66
2022/07/09 08:46:04;;;;;;;2.88;1.40;;;18.30;99.90;;;;;;5042345;28;20382;-66
2022/07/09 08:48:33;;;;;;;2.90;1.50;;;18.30;99.90;;;;;;5039988;28;20424;-66
2022/07/09 08:51:00;;;;;;;3.75;1.73;;;18.40;99.90;;;;;;5041316;28;20484;-66
2022/07/09 08:53:30;;;;;;;2.78;1.45;;;18.40;99.90;;;;;;5041899;28;20685;-66
2022/07/09 08:55:57;;;;;;;4.35;1.58;;;18.50;99.90;;;;;;5043693;28;20377;-66
2022/07/09 08:58:23;;;;;;;4.35;1.52;;;18.60;99.90;;;;;;5046206;28;20399;-67
2022/07/09 09:00:50;;;;;;;3.28;1.50;;;18.70;99.90;;;;;;5047707;28;20917;-66
2022/07/09 09:03:17;;;;;;;3.83;1.73;;;18.70;99.90;;;;;;5048821;28;20389;-66
2022/07/09 09:05:42;;;;;;;2.28;1.38;;;18.80;99.90;;;;;;5049352;28;20713;-66
2022/07/09 09:08:24;;;;;;;2.90;1.60;;;18.90;99.90;;;;;;5049116;28;20463;-67
2022/07/09 09:10:49;;;;;;;4.60;1.45;;;18.90;99.90;;;;;;5049373;28;20381;-67
2022/07/09 09:13:16;;;;;;;1.92;1.10;;;19.00;99.90;;;;;;5052316;28;20384;-68
2022/07/09 09:15:42;;;;;;;2.35;0.98;;;19.00;99.90;;;;;;5049673;28;20385;-62
2022/07/09 09:18:08;;;;;;;4.63;1.25;;;19.10;99.90;;;;;;5051435;28;20781;-61
2022/07/09 09:20:34;;;;;;;3.45;1.17;;;19.20;99.90;;;;;;5048613;28;20444;-61
2022/07/09 09:23:02;;;;;;;3.47;1.50;;;19.30;99.90;;;;;;5045951;28;20382;-61
2022/07/09 09:25:28;;;;;;;3.22;1.00;;;19.40;99.90;;;;;;5044908;28;20392;-59
2022/07/09 09:27:55;;;;;;;4.20;1.33;;;19.40;99.90;;;;;;5043174;28;20397;-59
2022/07/09 09:30:21;;;;;;;3.50;1.25;;;19.50;99.90;;;;;;5041854;28;20453;-59
2022/07/09 09:33:01;;;;;;;5.00;1.33;;;19.60;99.90;;;;;;5043044;28;20462;-60
2022/07/09 09:35:43;;;;;;;3.33;1.30;;;19.60;99.90;;;;;;5044212;28;20408;-61
2022/07/09 09:38:08;;;;;;;3.33;1.20;;;19.60;99.90;;;;;;5045023;28;20389;-67
2022/07/09 09:40:35;;;;;;;2.88;1.05;;;19.50;99.90;;;;;;5047174;28;20480;-68
2022/07/09 09:43:02;;;;;;;3.53;1.30;;;19.40;99.90;;;;;;5047954;28;20390;-68
2022/07/09 09:45:28;;;;;;;2.80;1.20;;;19.50;99.90;;;;;;5049440;28;20407;-67
2022/07/09 09:47:54;;;;;;;2.15;1.60;;;19.50;99.90;;;;;;5050504;28;20413;-67
2022/07/09 09:50:24;;;;;;;3.63;1.10;;;19.60;99.90;;;;;;5050389;28;20381;-67
2022/07/09 09:52:52;;;;;;;1.95;0.93;;;19.60;99.90;;;;;;5052441;28;20730;-67
2022/07/09 09:55:19;;;;;;;3.63;1.30;;;19.60;99.90;;;;;;5051065;28;20774;-67
2022/07/09 09:57:46;;;;;;;3.38;1.00;;;19.60;99.90;;;;;;5050365;28;20428;-68
2022/07/09 10:00:13;;;;;;;4.18;1.05;;;19.70;99.90;;;;;;5050075;28;20416;-67
2022/07/09 10:02:43;;;;;;;1.90;1.00;;;19.80;99.90;;;;;;5049925;28;20384;-68
2022/07/09 10:05:08;;;;;;;3.60;1.20;;;20.00;99.90;;;;;;5050244;28;20426;-67
2022/07/09 10:07:34;;;;;;;3.77;1.27;;;20.10;99.90;;;;;;5050478;28;20491;-67
2022/07/09 10:10:00;;;;;;;3.53;1.30;;;20.20;99.90;;;;;;5048687;28;20787;-68
2022/07/09 10:12:36;;;;;;;4.25;1.23;;;20.20;99.90;;;;;;5047201;28;20381;-67
2022/07/09 10:15:21;;;;;;;3.72;1.23;;;20.10;99.90;;;;;;5047208;28;21082;-67
2022/07/09 10:17:46;;;;;;;2.70;0.90;;;19.90;99.90;;;;;;5046992;28;21063;-67
2022/07/09 10:20:12;;;;;;;2.73;1.00;;;19.90;99.90;;;;;;5048982;28;20481;-67
2022/07/09 10:22:42;;;;;;;2.30;1.10;;;20.00;99.90;;;;;;5048703;28;20389;-67
2022/07/09 10:25:09;;;;;;;2.22;1.20;;;20.10;99.90;;;;;;5050896;28;20404;-67
2022/07/09 10:27:47;;;;;;;2.45;1.20;;;20.10;99.90;;;;;;5048979;28;20494;-66
2022/07/09 10:30:46;;;;;;;4.03;1.70;;;20.10;99.90;;;;;;5049604;28;20989;-68
2022/07/09 10:33:18;;;;;;;2.92;1.15;;;19.90;99.90;;;;;;5002695;28;20528;-68
2022/07/09 10:35:47;;;;;;;3.33;1.58;;;19.80;99.90;;;;;;5050797;28;20390;-68
2022/07/09 10:38:14;;;;;;;3.80;1.27;;;19.80;99.90;;;;;;5048472;28;20377;-68
2022/07/09 10:40:45;;;;;;;1.92;1.17;;;19.90;99.90;;;;;;5046960;28;20389;-68
2022/07/09 10:43:11;;;;;;;3.58;1.20;;;20.10;99.90;;;;;;5048481;28;20792;-68
2022/07/09 10:45:43;;;;;;;2.70;1.10;;;20.20;99.90;;;;;;5045254;28;20990;-68
2022/07/09 10:48:10;;;;;;;4.28;1.10;;;20.30;99.90;;;;;;5047166;28;20527;-68
2022/07/09 10:50:39;;;;;;;2.85;1.15;;;20.30;99.90;;;;;;5047793;28;20377;-67
2022/07/09 10:53:05;;;;;;;1.73;1.00;;;20.20;99.90;;;;;;5049525;28;20381;-67
2022/07/09 10:55:33;;;;;;;4.25;1.55;;;20.10;99.90;;;;;;5047830;28;20384;-68
2022/07/09 10:58:01;;;;;;;4.55;1.30;;;20.00;99.90;;;;;;5046030;28;20389;-67
2022/07/09 11:00:30;;;;;;;4.80;1.40;;;20.00;99.90;;;;;;5044551;28;20468;-67
2022/07/09 11:03:03;;;;;;;5.75;2.00;;;20.00;99.90;;;;;;5045263;28;20443;-67
2022/07/09 11:05:31;;;;;;;3.53;1.20;;;20.10;99.90;;;;;;5044584;28;20908;-67
2022/07/09 11:08:04;;;;;;;4.93;1.42;;;20.10;99.90;;;;;;5045014;28;20466;-67
2022/07/09 11:10:32;;;;;;;3.88;1.17;;;20.00;99.90;;;;;;5044817;28;20409;-67
2022/07/09 11:13:02;;;;;;;3.50;1.40;;;19.90;99.90;;;;;;5047574;28;20382;-67
2022/07/09 11:15:30;;;;;;;4.20;1.33;;;19.90;99.90;;;;;;5047942;28;20393;-67
2022/07/09 11:18:01;;;;;;;3.22;1.10;;;20.00;99.90;;;;;;5046459;28;20397;-67
2022/07/09 11:20:29;;;;;;;4.90;1.33;;;20.10;99.90;;;;;;5046171;28;20853;-67
2022/07/09 11:22:56;;;;;;;2.42;1.00;;;20.20;99.90;;;;;;5047649;28;20415;-68
2022/07/09 11:25:25;;;;;;;2.60;1.33;;;20.20;99.90;;;;;;5043514;28;20402;-68
2022/07/09 11:27:53;;;;;;;2.77;1.27;;;20.30;99.90;;;;;;5044548;28;20397;-68
2022/07/09 11:30:18;;;;;;;2.60;1.00;;;20.50;99.90;;;;;;5046461;28;20881;-68
2022/07/09 11:32:46;;;;;;;2.08;0.82;;;20.50;99.90;;;;;;5044334;28;20939;-67
2022/07/09 11:35:12;;;;;;;2.33;1.10;;;20.50;99.90;;;;;;5052115;28;20442;-68
2022/07/09 11:37:44;;;;;;;3.15;1.40;;;20.50;99.90;;;;;;5050700;28;20385;-69
2022/07/09 11:40:17;;;;;;;2.90;1.30;;;20.60;99.90;;;;;;5049225;28;20947;-68
2022/07/09 11:42:45;;;;;;;3.05;1.30;;;20.60;99.90;;;;;;5031291;28;20945;-69
2022/07/09 11:45:11;;;;;;;1.70;1.17;;;20.50;99.90;;;;;;5048552;28;21048;-68
2022/07/09 11:47:39;;;;;;;2.28;1.02;;;20.40;99.90;;;;;;5047082;28;21023;-69
2022/07/09 11:50:07;;;;;;;1.52;0.80;;;20.50;99.90;;;;;;5047200;28;20393;-69
2022/07/09 11:52:34;;;;;;;2.57;1.20;;;20.60;99.90;;;;;;5048536;28;20419;-68
2022/07/09 11:55:10;;;;;;;2.72;1.20;;;20.70;99.90;;;;;;5049454;28;20389;-68
2022/07/09 11:57:37;;;;;;;3.33;1.10;;;20.70;99.90;;;;;;5048096;28;20390;-68
2022/07/09 12:00:06;;;;;;;2.58;0.80;;;20.70;99.90;;;;;;5049505;28;20390;-68
2022/07/09 12:02:38;;;;;;;4.30;1.40;;;20.70;99.90;;;;;;5049014;28;20390;-69
2022/07/09 12:05:11;;;;;;;2.42;1.17;;;21.00;99.90;;;;;;5032091;28;21116;-69
2022/07/09 12:07:37;;;;;;;1.67;0.80;;;21.10;99.90;;;;;;5048349;28;20416;-68
2022/07/09 12:10:13;;;;;;;2.90;1.05;;;21.10;99.90;;;;;;5047995;28;20397;-68
2022/07/09 12:12:40;;;;;;;2.28;1.10;;;21.20;99.90;;;;;;5047220;28;20384;-68
2022/07/09 12:15:08;;;;;;;3.45;1.02;;;21.10;99.90;;;;;;5048607;28;20675;-68
2022/07/09 12:17:33;;;;;;;2.58;1.00;;;20.90;99.90;;;;;;5050219;28;20473;-68
2022/07/09 12:20:00;;;;;;;2.13;1.27;;;20.80;99.90;;;;;;5049613;28;20416;-68
2022/07/09 12:22:27;;;;;;;2.97;1.30;;;20.80;99.90;;;;;;5050001;28;20420;-68
2022/07/09 12:24:54;;;;;;;2.97;1.23;;;20.60;99.90;;;;;;5048668;28;20389;-68
2022/07/09 12:27:21;;;;;;;3.78;1.20;;;20.60;99.90;;;;;;5048411;28;20543;-68
2022/07/09 12:29:47;;;;;;;2.88;0.93;;;20.60;99.90;;;;;;5049076;28;20399;-68
2022/07/09 12:32:13;;;;;;;2.70;1.30;;;20.90;99.90;;;;;;5050911;28;20424;-68
2022/07/09 12:34:40;;;;;;;2.67;1.30;;;21.10;99.90;;;;;;5049387;28;20403;-68
2022/07/09 12:37:07;;;;;;;3.33;1.40;;;21.10;99.90;;;;;;5049016;28;20385;-68
2022/07/09 12:39:34;;;;;;;3.15;1.40;;;21.40;99.90;;;;;;5048489;28;20428;-68
2022/07/09 12:42:01;;;;;;;2.95;1.55;;;21.60;99.90;;;;;;5050865;28;20435;-68
2022/07/09 12:44:28;;;;;;;3.13;1.10;;;21.90;99.90;;;;;;5050843;28;20796;-68